sensor_id;sensor_type;location;lat;lon;timestamp;P1;durP1;ratioP1;P2;durP2;ratioP2
16705;SDS011;8469;60.136;15.180;2022-12-18T00:02:01;6.67;;;3.42;;
16705;SDS011;8469;60.136;15.180;2022-12-18T00:04:29;8.45;;;3.47;;
16705;SDS011;8469;60.136;15.180;2022-12-18T00:06:57;7.10;;;3.37;;
16705;SDS011;8469;60.136;15.180;2022-12-18T00:09:24;6.00;;;3.22;;
16705;SDS011;8469;60.136;15.180;2022-12-18T00:11:51;6.78;;;3.22;;
16705;SDS011;8469;60.136;15.180;2022-12-18T00:14:19;6.92;;;2.60;;
16705;SDS011;8469;60.136;15.180;2022-12-18T00:16:46;4.95;;;2.87;;
16705;SDS011;8469;60.136;15.180;2022-12-18T00:19:14;6.08;;;2.90;;
16705;SDS011;8469;60.136;15.180;2022-12-18T00:21:41;6.00;;;2.95;;
16705;SDS011;8469;60.136;15.180;2022-12-18T00:24:10;7.00;;;3.00;;
16705;SDS011;8469;60.136;15.180;2022-12-18T00:26:38;4.05;;;3.00;;
16705;SDS011;8469;60.136;15.180;2022-12-18T00:29:07;5.53;;;3.20;;
16705;SDS011;8469;60.136;15.180;2022-12-18T00:31:34;4.40;;;3.00;;
16705;SDS011;8469;60.136;15.180;2022-12-18T00:34:02;5.78;;;2.95;;
16705;SDS011;8469;60.136;15.180;2022-12-18T00:36:30;4.67;;;2.95;;
16705;SDS011;8469;60.136;15.180;2022-12-18T00:38:58;5.12;;;2.90;;
16705;SDS011;8469;60.136;15.180;2022-12-18T00:41:26;5.90;;;2.87;;
16705;SDS011;8469;60.136;15.180;2022-12-18T00:44:13;4.78;;;3.15;;
16705;SDS011;8469;60.136;15.180;2022-12-18T00:46:41;4.55;;;3.45;;
16705;SDS011;8469;60.136;15.180;2022-12-18T00:49:08;5.87;;;3.50;;
16705;SDS011;8469;60.136;15.180;2022-12-18T00:51:36;6.83;;;3.10;;
16705;SDS011;8469;60.136;15.180;2022-12-18T00:54:03;4.28;;;3.00;;
16705;SDS011;8469;60.136;15.180;2022-12-18T00:56:31;4.72;;;3.08;;
16705;SDS011;8469;60.136;15.180;2022-12-18T00:58:58;5.03;;;2.80;;
16705;SDS011;8469;60.136;15.180;2022-12-18T01:01:25;6.22;;;3.20;;
16705;SDS011;8469;60.136;15.180;2022-12-18T01:03:53;3.93;;;2.77;;
16705;SDS011;8469;60.136;15.180;2022-12-18T01:06:20;4.92;;;3.08;;
16705;SDS011;8469;60.136;15.180;2022-12-18T01:08:47;5.95;;;3.25;;
16705;SDS011;8469;60.136;15.180;2022-12-18T01:11:16;4.60;;;2.92;;
16705;SDS011;8469;60.136;15.180;2022-12-18T01:13:44;6.05;;;3.12;;
16705;SDS011;8469;60.136;15.180;2022-12-18T01:16:16;6.55;;;3.50;;
16705;SDS011;8469;60.136;15.180;2022-12-18T01:18:40;6.65;;;3.20;;
16705;SDS011;8469;60.136;15.180;2022-12-18T01:21:08;5.00;;;3.08;;
16705;SDS011;8469;60.136;15.180;2022-12-18T01:23:35;8.08;;;3.58;;
16705;SDS011;8469;60.136;15.180;2022-12-18T01:26:10;11.93;;;4.60;;
16705;SDS011;8469;60.136;15.180;2022-12-18T01:28:38;8.20;;;4.03;;
16705;SDS011;8469;60.136;15.180;2022-12-18T01:31:24;7.37;;;4.00;;
16705;SDS011;8469;60.136;15.180;2022-12-18T01:33:37;7.42;;;4.03;;
16705;SDS011;8469;60.136;15.180;2022-12-18T01:36:04;6.87;;;3.75;;
16705;SDS011;8469;60.136;15.180;2022-12-18T01:38:32;7.97;;;4.20;;
16705;SDS011;8469;60.136;15.180;2022-12-18T01:41:00;7.97;;;4.15;;
16705;SDS011;8469;60.136;15.180;2022-12-18T01:43:44;6.30;;;4.03;;
16705;SDS011;8469;60.136;15.180;2022-12-18T01:46:08;9.55;;;4.30;;
16705;SDS011;8469;60.136;15.180;2022-12-18T01:48:35;9.33;;;4.15;;
16705;SDS011;8469;60.136;15.180;2022-12-18T01:51:03;6.72;;;3.95;;
16705;SDS011;8469;60.136;15.180;2022-12-18T01:53:31;7.70;;;3.85;;
16705;SDS011;8469;60.136;15.180;2022-12-18T01:55:59;6.12;;;3.75;;
16705;SDS011;8469;60.136;15.180;2022-12-18T01:58:38;7.33;;;3.85;;
16705;SDS011;8469;60.136;15.180;2022-12-18T02:01:04;6.80;;;3.73;;
16705;SDS011;8469;60.136;15.180;2022-12-18T02:03:31;6.50;;;3.70;;
16705;SDS011;8469;60.136;15.180;2022-12-18T02:06:10;5.87;;;2.80;;
16705;SDS011;8469;60.136;15.180;2022-12-18T02:11:05;5.30;;;3.02;;
16705;SDS011;8469;60.136;15.180;2022-12-18T02:18:43;6.00;;;3.20;;
16705;SDS011;8469;60.136;15.180;2022-12-18T02:23:47;4.33;;;3.30;;
16705;SDS011;8469;60.136;15.180;2022-12-18T02:26:26;4.73;;;3.00;;
16705;SDS011;8469;60.136;15.180;2022-12-18T02:28:56;4.15;;;2.92;;
16705;SDS011;8469;60.136;15.180;2022-12-18T02:31:29;3.75;;;2.95;;
16705;SDS011;8469;60.136;15.180;2022-12-18T02:33:53;4.17;;;2.80;;
16705;SDS011;8469;60.136;15.180;2022-12-18T02:36:21;3.45;;;2.70;;
16705;SDS011;8469;60.136;15.180;2022-12-18T02:38:49;4.17;;;2.70;;
16705;SDS011;8469;60.136;15.180;2022-12-18T02:41:17;3.80;;;2.75;;
16705;SDS011;8469;60.136;15.180;2022-12-18T02:43:48;3.00;;;2.52;;
16705;SDS011;8469;60.136;15.180;2022-12-18T02:46:27;4.22;;;3.17;;
16705;SDS011;8469;60.136;15.180;2022-12-18T02:54:10;4.00;;;2.70;;
16705;SDS011;8469;60.136;15.180;2022-12-18T02:56:38;3.80;;;2.75;;
16705;SDS011;8469;60.136;15.180;2022-12-18T02:59:02;4.83;;;2.98;;
16705;SDS011;8469;60.136;15.180;2022-12-18T03:01:33;4.03;;;2.83;;
16705;SDS011;8469;60.136;15.180;2022-12-18T03:04:01;4.40;;;2.92;;
16705;SDS011;8469;60.136;15.180;2022-12-18T03:06:39;2.90;;;2.60;;
16705;SDS011;8469;60.136;15.180;2022-12-18T03:09:07;4.33;;;2.72;;
16705;SDS011;8469;60.136;15.180;2022-12-18T03:11:36;4.58;;;3.00;;
16705;SDS011;8469;60.136;15.180;2022-12-18T03:14:21;4.60;;;3.30;;
16705;SDS011;8469;60.136;15.180;2022-12-18T03:16:51;4.83;;;3.00;;
16705;SDS011;8469;60.136;15.180;2022-12-18T03:19:20;6.35;;;3.60;;
16705;SDS011;8469;60.136;15.180;2022-12-18T03:21:49;6.97;;;3.75;;
16705;SDS011;8469;60.136;15.180;2022-12-18T03:24:19;6.05;;;3.95;;
16705;SDS011;8469;60.136;15.180;2022-12-18T03:26:47;9.65;;;4.45;;
16705;SDS011;8469;60.136;15.180;2022-12-18T03:29:20;8.43;;;4.37;;
16705;SDS011;8469;60.136;15.180;2022-12-18T03:31:49;7.72;;;4.20;;
16705;SDS011;8469;60.136;15.180;2022-12-18T03:34:17;7.55;;;3.87;;
16705;SDS011;8469;60.136;15.180;2022-12-18T03:36:45;7.80;;;4.33;;
16705;SDS011;8469;60.136;15.180;2022-12-18T03:39:13;5.87;;;3.42;;
16705;SDS011;8469;60.136;15.180;2022-12-18T03:41:43;5.50;;;3.22;;
16705;SDS011;8469;60.136;15.180;2022-12-18T03:44:31;3.90;;;2.92;;
16705;SDS011;8469;60.136;15.180;2022-12-18T03:47:03;3.20;;;2.70;;
16705;SDS011;8469;60.136;15.180;2022-12-18T03:52:04;3.95;;;2.87;;
16705;SDS011;8469;60.136;15.180;2022-12-18T03:54:28;3.05;;;2.50;;
16705;SDS011;8469;60.136;15.180;2022-12-18T03:57:01;2.63;;;2.10;;
16705;SDS011;8469;60.136;15.180;2022-12-18T03:59:25;3.17;;;2.20;;
16705;SDS011;8469;60.136;15.180;2022-12-18T04:01:53;2.80;;;2.25;;
16705;SDS011;8469;60.136;15.180;2022-12-18T04:04:21;2.15;;;1.82;;
16705;SDS011;8469;60.136;15.180;2022-12-18T04:06:50;2.10;;;1.80;;
16705;SDS011;8469;60.136;15.180;2022-12-18T04:09:18;1.75;;;1.65;;
16705;SDS011;8469;60.136;15.180;2022-12-18T04:11:46;2.65;;;1.70;;
16705;SDS011;8469;60.136;15.180;2022-12-18T04:14:13;2.05;;;1.72;;
16705;SDS011;8469;60.136;15.180;2022-12-18T04:16:41;1.60;;;1.50;;
16705;SDS011;8469;60.136;15.180;2022-12-18T04:19:08;1.80;;;1.70;;
16705;SDS011;8469;60.136;15.180;2022-12-18T04:21:36;1.90;;;1.80;;
16705;SDS011;8469;60.136;15.180;2022-12-18T04:24:03;1.95;;;1.80;;
16705;SDS011;8469;60.136;15.180;2022-12-18T04:26:31;1.77;;;1.60;;
16705;SDS011;8469;60.136;15.180;2022-12-18T04:28:58;2.25;;;1.87;;
16705;SDS011;8469;60.136;15.180;2022-12-18T04:31:26;1.70;;;1.60;;
16705;SDS011;8469;60.136;15.180;2022-12-18T04:33:53;1.70;;;1.60;;
16705;SDS011;8469;60.136;15.180;2022-12-18T04:36:20;1.70;;;1.60;;
16705;SDS011;8469;60.136;15.180;2022-12-18T04:38:48;2.67;;;1.57;;
16705;SDS011;8469;60.136;15.180;2022-12-18T04:41:15;1.62;;;1.52;;
16705;SDS011;8469;60.136;15.180;2022-12-18T04:43:42;2.37;;;1.80;;
16705;SDS011;8469;60.136;15.180;2022-12-18T04:46:10;2.75;;;2.00;;
16705;SDS011;8469;60.136;15.180;2022-12-18T04:48:37;2.00;;;1.82;;
16705;SDS011;8469;60.136;15.180;2022-12-18T04:51:05;1.70;;;1.60;;
16705;SDS011;8469;60.136;15.180;2022-12-18T04:53:32;1.90;;;1.80;;
16705;SDS011;8469;60.136;15.180;2022-12-18T04:56:07;2.63;;;1.87;;
16705;SDS011;8469;60.136;15.180;2022-12-18T04:58:35;2.12;;;1.92;;
16705;SDS011;8469;60.136;15.180;2022-12-18T05:01:03;2.83;;;2.15;;
16705;SDS011;8469;60.136;15.180;2022-12-18T05:03:30;2.65;;;1.98;;
16705;SDS011;8469;60.136;15.180;2022-12-18T05:05:58;2.15;;;1.95;;
16705;SDS011;8469;60.136;15.180;2022-12-18T05:08:25;5.00;;;2.50;;
16705;SDS011;8469;60.136;15.180;2022-12-18T05:11:03;6.42;;;2.83;;
16705;SDS011;8469;60.136;15.180;2022-12-18T05:13:30;3.45;;;2.52;;
16705;SDS011;8469;60.136;15.180;2022-12-18T05:15:59;4.83;;;2.90;;
16705;SDS011;8469;60.136;15.180;2022-12-18T05:18:27;4.33;;;2.92;;
16705;SDS011;8469;60.136;15.180;2022-12-18T05:20:54;5.35;;;3.27;;
16705;SDS011;8469;60.136;15.180;2022-12-18T05:23:22;6.20;;;3.20;;
16705;SDS011;8469;60.136;15.180;2022-12-18T05:25:53;3.92;;;3.02;;
16705;SDS011;8469;60.136;15.180;2022-12-18T05:28:21;6.87;;;3.17;;
16705;SDS011;8469;60.136;15.180;2022-12-18T05:30:53;6.37;;;3.27;;
16705;SDS011;8469;60.136;15.180;2022-12-18T05:33:20;5.10;;;3.30;;
16705;SDS011;8469;60.136;15.180;2022-12-18T05:35:51;5.08;;;3.40;;
16705;SDS011;8469;60.136;15.180;2022-12-18T05:38:20;5.47;;;3.35;;
16705;SDS011;8469;60.136;15.180;2022-12-18T05:40:48;6.40;;;3.85;;
16705;SDS011;8469;60.136;15.180;2022-12-18T05:43:16;6.10;;;3.55;;
16705;SDS011;8469;60.136;15.180;2022-12-18T05:45:43;5.27;;;3.97;;
16705;SDS011;8469;60.136;15.180;2022-12-18T05:48:11;4.08;;;3.42;;
16705;SDS011;8469;60.136;15.180;2022-12-18T05:50:39;5.33;;;3.08;;
16705;SDS011;8469;60.136;15.180;2022-12-18T05:53:07;3.77;;;2.60;;
16705;SDS011;8469;60.136;15.180;2022-12-18T05:55:34;6.17;;;2.97;;
16705;SDS011;8469;60.136;15.180;2022-12-18T05:58:03;3.00;;;2.70;;
16705;SDS011;8469;60.136;15.180;2022-12-18T06:00:31;2.50;;;2.22;;
16705;SDS011;8469;60.136;15.180;2022-12-18T06:02:58;4.25;;;2.75;;
16705;SDS011;8469;60.136;15.180;2022-12-18T06:05:26;2.55;;;2.17;;
16705;SDS011;8469;60.136;15.180;2022-12-18T06:07:53;2.80;;;2.00;;
16705;SDS011;8469;60.136;15.180;2022-12-18T06:10:20;2.65;;;2.22;;
16705;SDS011;8469;60.136;15.180;2022-12-18T06:12:48;2.40;;;2.22;;
16705;SDS011;8469;60.136;15.180;2022-12-18T06:15:15;3.87;;;2.60;;
16705;SDS011;8469;60.136;15.180;2022-12-18T06:17:42;3.40;;;2.50;;
16705;SDS011;8469;60.136;15.180;2022-12-18T06:20:10;3.35;;;2.45;;
16705;SDS011;8469;60.136;15.180;2022-12-18T06:22:37;5.22;;;2.80;;
16705;SDS011;8469;60.136;15.180;2022-12-18T06:25:05;3.10;;;2.60;;
16705;SDS011;8469;60.136;15.180;2022-12-18T06:27:32;5.40;;;3.10;;
16705;SDS011;8469;60.136;15.180;2022-12-18T06:30:00;5.72;;;3.22;;
16705;SDS011;8469;60.136;15.180;2022-12-18T06:32:28;4.90;;;3.20;;
16705;SDS011;8469;60.136;15.180;2022-12-18T06:34:55;7.33;;;3.55;;
16705;SDS011;8469;60.136;15.180;2022-12-18T06:37:22;6.30;;;3.45;;
16705;SDS011;8469;60.136;15.180;2022-12-18T06:39:53;9.28;;;3.67;;
16705;SDS011;8469;60.136;15.180;2022-12-18T06:42:20;7.87;;;4.13;;
16705;SDS011;8469;60.136;15.180;2022-12-18T06:44:48;7.55;;;3.98;;
16705;SDS011;8469;60.136;15.180;2022-12-18T06:47:15;7.10;;;4.12;;
16705;SDS011;8469;60.136;15.180;2022-12-18T06:49:43;7.00;;;3.60;;
16705;SDS011;8469;60.136;15.180;2022-12-18T06:52:10;3.70;;;3.22;;
16705;SDS011;8469;60.136;15.180;2022-12-18T06:54:37;4.35;;;3.02;;
16705;SDS011;8469;60.136;15.180;2022-12-18T06:57:05;4.45;;;2.90;;
16705;SDS011;8469;60.136;15.180;2022-12-18T06:59:32;3.92;;;2.85;;
16705;SDS011;8469;60.136;15.180;2022-12-18T07:01:59;5.13;;;2.93;;
16705;SDS011;8469;60.136;15.180;2022-12-18T07:04:28;5.22;;;2.72;;
16705;SDS011;8469;60.136;15.180;2022-12-18T07:06:55;4.37;;;2.65;;
16705;SDS011;8469;60.136;15.180;2022-12-18T07:09:23;4.03;;;2.50;;
16705;SDS011;8469;60.136;15.180;2022-12-18T07:11:51;3.47;;;2.25;;
16705;SDS011;8469;60.136;15.180;2022-12-18T07:14:18;3.20;;;2.40;;
16705;SDS011;8469;60.136;15.180;2022-12-18T07:16:46;2.70;;;2.35;;
16705;SDS011;8469;60.136;15.180;2022-12-18T07:19:13;3.15;;;2.50;;
16705;SDS011;8469;60.136;15.180;2022-12-18T07:21:40;2.93;;;2.23;;
16705;SDS011;8469;60.136;15.180;2022-12-18T07:24:08;3.40;;;2.15;;
16705;SDS011;8469;60.136;15.180;2022-12-18T07:26:35;3.58;;;2.30;;
16705;SDS011;8469;60.136;15.180;2022-12-18T07:29:02;2.62;;;2.12;;
16705;SDS011;8469;60.136;15.180;2022-12-18T07:31:30;4.22;;;2.20;;
16705;SDS011;8469;60.136;15.180;2022-12-18T07:33:57;4.22;;;2.12;;
16705;SDS011;8469;60.136;15.180;2022-12-18T07:36:25;3.42;;;2.15;;
16705;SDS011;8469;60.136;15.180;2022-12-18T07:38:52;3.58;;;2.20;;
16705;SDS011;8469;60.136;15.180;2022-12-18T07:41:19;2.30;;;2.10;;
16705;SDS011;8469;60.136;15.180;2022-12-18T07:43:47;2.92;;;1.98;;
16705;SDS011;8469;60.136;15.180;2022-12-18T07:46:15;3.55;;;1.98;;
16705;SDS011;8469;60.136;15.180;2022-12-18T07:48:43;1.82;;;1.50;;
16705;SDS011;8469;60.136;15.180;2022-12-18T07:51:10;1.90;;;1.70;;
16705;SDS011;8469;60.136;15.180;2022-12-18T07:53:39;2.00;;;1.40;;
16705;SDS011;8469;60.136;15.180;2022-12-18T07:56:07;2.72;;;1.80;;
16705;SDS011;8469;60.136;15.180;2022-12-18T07:58:35;4.05;;;2.00;;
16705;SDS011;8469;60.136;15.180;2022-12-18T08:01:03;3.02;;;2.02;;
16705;SDS011;8469;60.136;15.180;2022-12-18T08:03:31;3.75;;;1.87;;
16705;SDS011;8469;60.136;15.180;2022-12-18T08:06:00;5.10;;;2.08;;
16705;SDS011;8469;60.136;15.180;2022-12-18T08:08:28;6.12;;;2.85;;
16705;SDS011;8469;60.136;15.180;2022-12-18T08:10:55;10.08;;;4.40;;
16705;SDS011;8469;60.136;15.180;2022-12-18T08:13:23;16.57;;;9.33;;
16705;SDS011;8469;60.136;15.180;2022-12-18T08:18:28;5.78;;;2.33;;
16705;SDS011;8469;60.136;15.180;2022-12-18T08:20:56;4.15;;;2.60;;
16705;SDS011;8469;60.136;15.180;2022-12-18T08:23:23;4.33;;;2.75;;
16705;SDS011;8469;60.136;15.180;2022-12-18T08:25:51;2.87;;;2.20;;
16705;SDS011;8469;60.136;15.180;2022-12-18T08:28:18;5.58;;;2.37;;
16705;SDS011;8469;60.136;15.180;2022-12-18T08:30:46;3.80;;;2.22;;
16705;SDS011;8469;60.136;15.180;2022-12-18T08:33:16;3.77;;;2.22;;
16705;SDS011;8469;60.136;15.180;2022-12-18T08:35:43;5.55;;;2.98;;
16705;SDS011;8469;60.136;15.180;2022-12-18T08:38:11;5.30;;;3.35;;
16705;SDS011;8469;60.136;15.180;2022-12-18T08:40:38;6.12;;;3.33;;
16705;SDS011;8469;60.136;15.180;2022-12-18T08:43:07;3.42;;;2.80;;
16705;SDS011;8469;60.136;15.180;2022-12-18T08:45:52;7.50;;;3.67;;
16705;SDS011;8469;60.136;15.180;2022-12-18T08:48:19;6.62;;;4.17;;
16705;SDS011;8469;60.136;15.180;2022-12-18T08:50:56;5.10;;;3.22;;
16705;SDS011;8469;60.136;15.180;2022-12-18T08:53:24;7.97;;;4.67;;
16705;SDS011;8469;60.136;15.180;2022-12-18T08:55:52;5.85;;;2.47;;
16705;SDS011;8469;60.136;15.180;2022-12-18T08:58:19;5.97;;;2.60;;
16705;SDS011;8469;60.136;15.180;2022-12-18T09:00:47;5.78;;;2.22;;
16705;SDS011;8469;60.136;15.180;2022-12-18T09:03:15;5.37;;;3.10;;
16705;SDS011;8469;60.136;15.180;2022-12-18T09:05:43;7.40;;;3.10;;
16705;SDS011;8469;60.136;15.180;2022-12-18T09:08:10;5.75;;;2.00;;
16705;SDS011;8469;60.136;15.180;2022-12-18T09:10:44;5.70;;;2.20;;
16705;SDS011;8469;60.136;15.180;2022-12-18T09:13:11;3.72;;;2.60;;
16705;SDS011;8469;60.136;15.180;2022-12-18T09:15:42;4.83;;;2.90;;
16705;SDS011;8469;60.136;15.180;2022-12-18T09:18:09;4.35;;;1.85;;
16705;SDS011;8469;60.136;15.180;2022-12-18T09:20:37;5.95;;;2.55;;
16705;SDS011;8469;60.136;15.180;2022-12-18T09:23:07;7.22;;;2.10;;
16705;SDS011;8469;60.136;15.180;2022-12-18T09:25:35;6.03;;;1.90;;
16705;SDS011;8469;60.136;15.180;2022-12-18T09:28:05;5.95;;;2.10;;
16705;SDS011;8469;60.136;15.180;2022-12-18T09:30:32;6.37;;;1.70;;
16705;SDS011;8469;60.136;15.180;2022-12-18T09:33:00;3.33;;;1.60;;
16705;SDS011;8469;60.136;15.180;2022-12-18T09:35:28;6.35;;;1.80;;
16705;SDS011;8469;60.136;15.180;2022-12-18T09:37:55;8.70;;;2.10;;
16705;SDS011;8469;60.136;15.180;2022-12-18T09:40:24;4.58;;;1.70;;
16705;SDS011;8469;60.136;15.180;2022-12-18T09:42:54;11.73;;;1.90;;
16705;SDS011;8469;60.136;15.180;2022-12-18T09:45:23;4.33;;;1.35;;
16705;SDS011;8469;60.136;15.180;2022-12-18T09:47:50;8.40;;;1.77;;
16705;SDS011;8469;60.136;15.180;2022-12-18T09:50:22;6.73;;;1.40;;
16705;SDS011;8469;60.136;15.180;2022-12-18T09:52:49;4.03;;;1.30;;
16705;SDS011;8469;60.136;15.180;2022-12-18T09:55:32;5.55;;;1.65;;
16705;SDS011;8469;60.136;15.180;2022-12-18T09:58:05;4.55;;;1.25;;
16705;SDS011;8469;60.136;15.180;2022-12-18T10:00:31;3.37;;;1.57;;
16705;SDS011;8469;60.136;15.180;2022-12-18T10:02:59;3.72;;;1.10;;
16705;SDS011;8469;60.136;15.180;2022-12-18T10:08:06;4.20;;;1.20;;
16705;SDS011;8469;60.136;15.180;2022-12-18T10:10:37;6.05;;;1.50;;
16705;SDS011;8469;60.136;15.180;2022-12-18T10:13:07;2.98;;;1.40;;
16705;SDS011;8469;60.136;15.180;2022-12-18T10:18:06;5.83;;;1.35;;
16705;SDS011;8469;60.136;15.180;2022-12-18T10:20:46;4.83;;;1.35;;
16705;SDS011;8469;60.136;15.180;2022-12-18T10:26:03;3.43;;;2.10;;
16705;SDS011;8469;60.136;15.180;2022-12-18T10:28:31;4.33;;;1.40;;
16705;SDS011;8469;60.136;15.180;2022-12-18T10:30:58;4.17;;;1.10;;
16705;SDS011;8469;60.136;15.180;2022-12-18T10:33:29;4.85;;;1.00;;
16705;SDS011;8469;60.136;15.180;2022-12-18T10:35:57;3.58;;;1.32;;
16705;SDS011;8469;60.136;15.180;2022-12-18T10:38:30;5.07;;;1.43;;
16705;SDS011;8469;60.136;15.180;2022-12-18T10:41:08;3.30;;;1.00;;
16705;SDS011;8469;60.136;15.180;2022-12-18T10:43:39;2.22;;;1.00;;
16705;SDS011;8469;60.136;15.180;2022-12-18T10:51:08;6.07;;;1.20;;
16705;SDS011;8469;60.136;15.180;2022-12-18T10:53:36;3.45;;;0.90;;
16705;SDS011;8469;60.136;15.180;2022-12-18T10:56:04;5.10;;;1.37;;
16705;SDS011;8469;60.136;15.180;2022-12-18T10:58:33;4.60;;;1.30;;
16705;SDS011;8469;60.136;15.180;2022-12-18T11:01:06;3.87;;;1.37;;
16705;SDS011;8469;60.136;15.180;2022-12-18T11:03:34;3.58;;;1.00;;
16705;SDS011;8469;60.136;15.180;2022-12-18T11:06:07;4.70;;;1.30;;
16705;SDS011;8469;60.136;15.180;2022-12-18T11:08:34;7.45;;;1.42;;
16705;SDS011;8469;60.136;15.180;2022-12-18T11:11:01;6.42;;;1.40;;
16705;SDS011;8469;60.136;15.180;2022-12-18T11:13:29;3.43;;;1.10;;
16705;SDS011;8469;60.136;15.180;2022-12-18T11:15:58;4.20;;;1.40;;
16705;SDS011;8469;60.136;15.180;2022-12-18T11:18:29;4.03;;;1.40;;
16705;SDS011;8469;60.136;15.180;2022-12-18T11:20:59;8.20;;;2.47;;
16705;SDS011;8469;60.136;15.180;2022-12-18T11:23:26;2.98;;;0.93;;
16705;SDS011;8469;60.136;15.180;2022-12-18T11:26:01;7.67;;;1.27;;
16705;SDS011;8469;60.136;15.180;2022-12-18T11:28:36;11.15;;;1.52;;
16705;SDS011;8469;60.136;15.180;2022-12-18T11:31:20;5.35;;;1.35;;
16705;SDS011;8469;60.136;15.180;2022-12-18T11:36:22;10.50;;;1.30;;
16705;SDS011;8469;60.136;15.180;2022-12-18T11:38:51;5.22;;;1.32;;
16705;SDS011;8469;60.136;15.180;2022-12-18T11:41:21;3.83;;;1.00;;
16705;SDS011;8469;60.136;15.180;2022-12-18T11:43:53;5.15;;;1.12;;
16705;SDS011;8469;60.136;15.180;2022-12-18T11:47:04;7.90;;;1.35;;
16705;SDS011;8469;60.136;15.180;2022-12-18T11:48:54;4.90;;;1.20;;
16705;SDS011;8469;60.136;15.180;2022-12-18T11:51:25;4.28;;;1.10;;
16705;SDS011;8469;60.136;15.180;2022-12-18T11:53:51;8.70;;;1.33;;
16705;SDS011;8469;60.136;15.180;2022-12-18T11:58:47;5.20;;;1.30;;
16705;SDS011;8469;60.136;15.180;2022-12-18T12:01:18;3.17;;;1.15;;
16705;SDS011;8469;60.136;15.180;2022-12-18T12:03:51;3.40;;;1.12;;
16705;SDS011;8469;60.136;15.180;2022-12-18T12:06:21;4.67;;;1.40;;
16705;SDS011;8469;60.136;15.180;2022-12-18T12:08:57;4.97;;;1.22;;
16705;SDS011;8469;60.136;15.180;2022-12-18T12:11:27;4.00;;;1.00;;
16705;SDS011;8469;60.136;15.180;2022-12-18T12:13:58;7.67;;;1.20;;
16705;SDS011;8469;60.136;15.180;2022-12-18T12:16:33;3.50;;;1.40;;
16705;SDS011;8469;60.136;15.180;2022-12-18T12:21:44;3.52;;;1.15;;
16705;SDS011;8469;60.136;15.180;2022-12-18T12:26:52;5.67;;;1.95;;
16705;SDS011;8469;60.136;15.180;2022-12-18T12:32:07;4.22;;;1.20;;
16705;SDS011;8469;60.136;15.180;2022-12-18T12:34:47;5.63;;;1.10;;
16705;SDS011;8469;60.136;15.180;2022-12-18T12:37:16;4.85;;;1.12;;
16705;SDS011;8469;60.136;15.180;2022-12-18T12:39:41;3.75;;;1.10;;
16705;SDS011;8469;60.136;15.180;2022-12-18T12:42:54;5.15;;;1.22;;
16705;SDS011;8469;60.136;15.180;2022-12-18T12:44:59;6.87;;;1.30;;
16705;SDS011;8469;60.136;15.180;2022-12-18T12:47:30;7.80;;;1.22;;
16705;SDS011;8469;60.136;15.180;2022-12-18T12:49:57;4.10;;;1.22;;
16705;SDS011;8469;60.136;15.180;2022-12-18T12:52:28;8.38;;;1.50;;
16705;SDS011;8469;60.136;15.180;2022-12-18T12:54:55;6.15;;;1.57;;
16705;SDS011;8469;60.136;15.180;2022-12-18T12:57:24;5.92;;;1.10;;
16705;SDS011;8469;60.136;15.180;2022-12-18T13:07:41;7.62;;;1.25;;
16705;SDS011;8469;60.136;15.180;2022-12-18T13:10:23;13.08;;;3.22;;
16705;SDS011;8469;60.136;15.180;2022-12-18T13:13:04;5.15;;;2.52;;
16705;SDS011;8469;60.136;15.180;2022-12-18T13:15:39;8.70;;;2.30;;
16705;SDS011;8469;60.136;15.180;2022-12-18T13:21:04;6.75;;;1.60;;
16705;SDS011;8469;60.136;15.180;2022-12-18T13:25:56;8.28;;;1.60;;
16705;SDS011;8469;60.136;15.180;2022-12-18T13:31:02;6.15;;;1.70;;
16705;SDS011;8469;60.136;15.180;2022-12-18T13:33:36;7.45;;;1.60;;
16705;SDS011;8469;60.136;15.180;2022-12-18T13:38:43;5.90;;;1.35;;
16705;SDS011;8469;60.136;15.180;2022-12-18T13:43:46;7.00;;;1.50;;
16705;SDS011;8469;60.136;15.180;2022-12-18T13:48:57;7.35;;;1.42;;
16705;SDS011;8469;60.136;15.180;2022-12-18T13:51:24;4.30;;;1.20;;
16705;SDS011;8469;60.136;15.180;2022-12-18T13:53:57;5.90;;;1.55;;
16705;SDS011;8469;60.136;15.180;2022-12-18T13:56:25;4.30;;;1.27;;
16705;SDS011;8469;60.136;15.180;2022-12-18T13:59:55;3.22;;;0.80;;
16705;SDS011;8469;60.136;15.180;2022-12-18T14:01:32;4.42;;;1.27;;
16705;SDS011;8469;60.136;15.180;2022-12-18T14:04:09;4.72;;;1.30;;
16705;SDS011;8469;60.136;15.180;2022-12-18T14:06:36;10.40;;;1.30;;
16705;SDS011;8469;60.136;15.180;2022-12-18T14:09:04;5.73;;;1.17;;
16705;SDS011;8469;60.136;15.180;2022-12-18T14:11:31;1.90;;;0.98;;
16705;SDS011;8469;60.136;15.180;2022-12-18T14:13:59;2.30;;;0.80;;
16705;SDS011;8469;60.136;15.180;2022-12-18T14:16:28;3.15;;;1.35;;
16705;SDS011;8469;60.136;15.180;2022-12-18T14:18:56;6.10;;;1.25;;
16705;SDS011;8469;60.136;15.180;2022-12-18T14:21:29;4.90;;;1.50;;
16705;SDS011;8469;60.136;15.180;2022-12-18T14:24:05;6.08;;;1.40;;
16705;SDS011;8469;60.136;15.180;2022-12-18T14:26:32;5.40;;;1.13;;
16705;SDS011;8469;60.136;15.180;2022-12-18T14:29:01;3.30;;;1.30;;
16705;SDS011;8469;60.136;15.180;2022-12-18T14:31:30;0.70;;;0.70;;
16705;SDS011;8469;60.136;15.180;2022-12-18T14:33:57;3.00;;;0.93;;
16705;SDS011;8469;60.136;15.180;2022-12-18T14:36:26;2.80;;;1.00;;
16705;SDS011;8469;60.136;15.180;2022-12-18T14:38:54;5.90;;;1.00;;
16705;SDS011;8469;60.136;15.180;2022-12-18T14:41:22;3.08;;;1.00;;
16705;SDS011;8469;60.136;15.180;2022-12-18T14:43:50;4.57;;;1.20;;
16705;SDS011;8469;60.136;15.180;2022-12-18T14:48:56;2.37;;;1.07;;
16705;SDS011;8469;60.136;15.180;2022-12-18T14:51:25;3.60;;;1.30;;
16705;SDS011;8469;60.136;15.180;2022-12-18T14:53:56;3.25;;;1.40;;
16705;SDS011;8469;60.136;15.180;2022-12-18T14:56:31;3.00;;;0.90;;
16705;SDS011;8469;60.136;15.180;2022-12-18T14:59:03;2.92;;;0.90;;
16705;SDS011;8469;60.136;15.180;2022-12-18T15:01:38;2.90;;;0.80;;
16705;SDS011;8469;60.136;15.180;2022-12-18T15:04:25;2.62;;;0.80;;
16705;SDS011;8469;60.136;15.180;2022-12-18T15:06:36;2.52;;;0.93;;
16705;SDS011;8469;60.136;15.180;2022-12-18T15:09:20;4.03;;;1.20;;
16705;SDS011;8469;60.136;15.180;2022-12-18T15:14:22;1.02;;;0.80;;
16705;SDS011;8469;60.136;15.180;2022-12-18T18:28:56;3.40;;;0.80;;
16705;SDS011;8469;60.136;15.180;2022-12-18T18:31:24;1.30;;;0.80;;
16705;SDS011;8469;60.136;15.180;2022-12-18T18:33:52;2.15;;;0.68;;
16705;SDS011;8469;60.136;15.180;2022-12-18T18:36:19;2.07;;;0.80;;
16705;SDS011;8469;60.136;15.180;2022-12-18T18:38:47;2.00;;;0.77;;
16705;SDS011;8469;60.136;15.180;2022-12-18T18:41:14;2.30;;;0.65;;
16705;SDS011;8469;60.136;15.180;2022-12-18T18:43:42;1.55;;;0.82;;
16705;SDS011;8469;60.136;15.180;2022-12-18T18:46:10;0.70;;;0.70;;
16705;SDS011;8469;60.136;15.180;2022-12-18T18:48:38;2.35;;;0.60;;
16705;SDS011;8469;60.136;15.180;2022-12-18T18:51:07;1.00;;;0.60;;
16705;SDS011;8469;60.136;15.180;2022-12-18T18:53:38;1.27;;;0.60;;
16705;SDS011;8469;60.136;15.180;2022-12-18T18:56:06;2.90;;;0.77;;
16705;SDS011;8469;60.136;15.180;2022-12-18T18:58:34;2.37;;;0.80;;
16705;SDS011;8469;60.136;15.180;2022-12-18T19:01:05;0.97;;;0.60;;
16705;SDS011;8469;60.136;15.180;2022-12-18T19:03:34;2.67;;;0.77;;
16705;SDS011;8469;60.136;15.180;2022-12-18T19:06:07;2.45;;;0.65;;
16705;SDS011;8469;60.136;15.180;2022-12-18T19:08:36;0.88;;;0.55;;
16705;SDS011;8469;60.136;15.180;2022-12-18T19:11:00;1.50;;;0.60;;
16705;SDS011;8469;60.136;15.180;2022-12-18T19:13:29;1.12;;;0.50;;
16705;SDS011;8469;60.136;15.180;2022-12-18T19:16:03;4.45;;;1.05;;
16705;SDS011;8469;60.136;15.180;2022-12-18T19:18:31;9.40;;;3.83;;
16705;SDS011;8469;60.136;15.180;2022-12-18T19:21:04;5.00;;;0.82;;
16705;SDS011;8469;60.136;15.180;2022-12-18T19:23:27;1.73;;;0.93;;
16705;SDS011;8469;60.136;15.180;2022-12-18T19:25:58;2.80;;;0.90;;
16705;SDS011;8469;60.136;15.180;2022-12-18T19:28:24;0.95;;;0.90;;